Biscayne Lady — WDB2148 — position and weather

sailwx.info

Track history (hours):
 
Tides and Currents Weather Stations Pressure Air Temp Water Temp Dewpoint Dewpoint Depression Visibility Wind Speed Wind Dir Waves Ship Positions

Biscayne Lady

Owner: Biscayne Lady Cruises, Miami, FL. More information available from US FCC via Universal Licensing System and Coast Guard Vessel Documentation Center.

Last reported at 2018-Feb-23 22:56 UTC. Time now 2018-Feb-23 23:57 UTC.
Position N 26°10' W 080°06'.

Type: Passenger vessel. MMSI: 366872810.

Date/timePositionNaut miles runAvg speedWind from/ knotsBaromVisibWave heightAir tempDewpointWater temp
2018-Feb-23 22:56N 26°10' W 080°06'0 0.0
2018-Feb-23 22:29N 26°10' W 080°06'0 0.0
2018-Feb-23 21:59N 26°10' W 080°06'0 0.0
2018-Feb-23 21:29N 26°10' W 080°06'0 0.0
2018-Feb-23 21:00N 26°10' W 080°06'2 3.5
2018-Feb-23 20:29N 26°08' W 080°07'2 3.6
2018-Feb-23 20:00N 26°07' W 080°07'4 7.1
2018-Feb-23 19:31N 26°03' W 080°07'2 5.0
2018-Feb-23 19:01N 26°01' W 080°07'3 5.7
2018-Feb-23 18:30N 25°58' W 080°07'3 5.8
2018-Feb-23 18:00N 25°55' W 080°08'2 4.2
2018-Feb-23 17:30N 25°53' W 080°09'3 5.2
2018-Feb-23 17:00N 25°51' W 080°10'3 7.0
2018-Feb-23 16:30N 25°47' W 080°11'1 1.3
2018-Feb-23 15:59N 25°47' W 080°11'0 0.0
2018-Feb-23 15:29N 25°47' W 080°11'0 0.0
2018-Feb-23 14:58N 25°47' W 080°11'0 0.0
2018-Feb-23 14:28N 25°47' W 080°11'0 0.0
2018-Feb-23 13:55N 25°47' W 080°11'0 0.0
2018-Feb-23 13:19N 25°47' W 080°11'0 0.0
2018-Feb-23 12:58N 25°47' W 080°11'0 0.0
2018-Feb-23 12:22N 25°47' W 080°11'0 0.0
2018-Feb-23 11:46N 25°47' W 080°11'0 0.0
2018-Feb-23 11:25N 25°47' W 080°11'0 0.0
2018-Feb-23 10:08N 25°47' W 080°11'0 0.0
2018-Feb-23 09:59N 25°47' W 080°11'0 0.0
2018-Feb-23 09:17N 25°47' W 080°11'0 0.0
2018-Feb-23 08:47N 25°47' W 080°11'0 0.0
2018-Feb-23 08:29N 25°47' W 080°11'0 0.0
2018-Feb-23 07:59N 25°47' W 080°11'0 0.0
2018-Feb-23 07:20N 25°47' W 080°11'0 0.0
2018-Feb-23 06:56N 25°47' W 080°11'0 0.0
2018-Feb-23 06:29N 25°47' W 080°11'0 0.0
2018-Feb-23 05:56N 25°47' W 080°11'0 0.0
2018-Feb-23 05:29N 25°47' W 080°11'0 0.0
2018-Feb-23 04:59N 25°47' W 080°11'0 0.0
2018-Feb-23 04:26N 25°47' W 080°11'0 0.0
2018-Feb-23 03:59N 25°47' W 080°11'0 0.0
2018-Feb-23 03:23N 25°47' W 080°11'0 0.0
2018-Feb-23 02:29N 25°47' W 080°11'0 0.0
2018-Feb-23 01:59N 25°47' W 080°11'0 0.0
2018-Feb-23 01:29N 25°47' W 080°11'0 0.0
2018-Feb-23 00:59N 25°47' W 080°11'0 0.0
2018-Feb-23 00:29N 25°47' W 080°11'0 0.0
2018-Feb-22 23:50N 25°47' W 080°11'0 0.0
2018-Feb-22 23:26N 25°47' W 080°11'0 0.0
2018-Feb-22 22:59N 25°47' W 080°11'0 0.0
2018-Feb-22 22:26N 25°47' W 080°11'0 0.0
2018-Feb-22 21:59N 25°47' W 080°11'0 0.0
2018-Feb-22 21:29N 25°47' W 080°11'0 0.0
2018-Feb-22 20:59N 25°47' W 080°11'0 0.0
2018-Feb-22 20:30N 25°47' W 080°11'0 0.0
2018-Feb-22 20:00N 25°47' W 080°11'0 0.0
2018-Feb-22 19:27N 25°47' W 080°11'0 0.0
2018-Feb-22 19:00N 25°47' W 080°11'0 0.0
2018-Feb-22 18:30N 25°47' W 080°11'0 0.0
2018-Feb-22 17:56N 25°47' W 080°11'0 0.0
2018-Feb-22 17:14N 25°47' W 080°11'0 0.0
2018-Feb-22 16:59N 25°47' W 080°11'0 0.0
2018-Feb-22 16:29N 25°47' W 080°11'0 0.0
2018-Feb-22 15:59N 25°47' W 080°11'0 0.0
2018-Feb-22 15:26N 25°47' W 080°11'0 0.0
2018-Feb-22 14:56N 25°47' W 080°11'0 0.0
2018-Feb-22 14:26N 25°47' W 080°11'0 0.0
2018-Feb-22 13:47N 25°47' W 080°11'0 0.0
2018-Feb-22 13:29N 25°47' W 080°11'0 0.0
2018-Feb-22 12:59N 25°47' W 080°11'0 0.0
2018-Feb-22 12:29N 25°47' W 080°11'0 0.0
2018-Feb-22 11:56N 25°47' W 080°11'0 0.0
2018-Feb-22 11:26N 25°47' W 080°11'0 0.0
2018-Feb-22 10:59N 25°47' W 080°11'0 0.0
2018-Feb-22 10:29N 25°47' W 080°11'0 0.0
2018-Feb-22 09:56N 25°47' W 080°11'0 0.0
2018-Feb-22 09:29N 25°47' W 080°11'0 0.0
2018-Feb-22 08:53N 25°47' W 080°11'0 0.0
2018-Feb-22 08:29N 25°47' W 080°11'0 0.0
2018-Feb-22 07:56N 25°47' W 080°11'0 0.0
2018-Feb-22 07:17N 25°47' W 080°11'0 0.0
2018-Feb-22 06:59N 25°47' W 080°11'0 0.0
2018-Feb-22 06:26N 25°47' W 080°11'0 0.0
2018-Feb-22 05:59N 25°47' W 080°11'0 0.0
2018-Feb-22 05:20N 25°47' W 080°11'0 0.0
2018-Feb-22 04:56N 25°47' W 080°11'0 0.0
2018-Feb-22 04:26N 25°47' W 080°11'0 0.0
2018-Feb-22 03:57N 25°47' W 080°11'0 0.0
2018-Feb-22 03:30N 25°47' W 080°11'1 1.1
2018-Feb-22 03:00N 25°46' W 080°11'1 2.1
2018-Feb-22 02:30N 25°47' W 080°10'1 1.6
2018-Feb-22 02:00N 25°46' W 080°10'0 0.4
2018-Feb-22 01:29N 25°46' W 080°10'1 2.8
2018-Feb-22 01:00N 25°47' W 080°11'2 3.0
2018-Feb-22 00:30N 25°46' W 080°09'2 3.1
2018-Feb-22 00:00N 25°47' W 080°11'1 1.4
2018-Feb-21 23:29N 25°46' W 080°11'0 0.0
2018-Feb-21 22:59N 25°46' W 080°11'1 1.2
2018-Feb-21 22:30N 25°47' W 080°11'0 0.0
2018-Feb-21 22:00N 25°47' W 080°11'0 0.0
2018-Feb-21 21:28N 25°47' W 080°11'0 0.0
2018-Feb-21 20:58N 25°47' W 080°11'0 0.0
2018-Feb-21 20:28N 25°47' W 080°11'0 0.0
2018-Feb-21 19:52N 25°47' W 080°11'0 0.0
2018-Feb-21 19:22N 25°47' W 080°11'0 0.0
2018-Feb-21 18:58N 25°47' W 080°11'0 0.0
2018-Feb-21 18:26N 25°47' W 080°11'0 0.5
2018-Feb-21 17:56N 25°46' W 080°11'0 0.5
2018-Feb-21 17:28N 25°47' W 080°11'0 0.0
2018-Feb-21 16:46N 25°47' W 080°11'0 0.0
2018-Feb-21 16:28N 25°47' W 080°11'0 0.0
2018-Feb-21 15:55N 25°47' W 080°11'0 0.0
2018-Feb-21 15:24N 25°47' W 080°11'0 0.0
2018-Feb-21 15:00N 25°47' W 080°11'0 0.0
2018-Feb-21 14:30N 25°47' W 080°11'0 0.0
2018-Feb-21 14:00N 25°47' W 080°11'0 0.0
2018-Feb-21 13:30N 25°47' W 080°11'0 0.0
2018-Feb-21 12:57N 25°47' W 080°11'0 0.0
2018-Feb-21 12:30N 25°47' W 080°11'0 0.0
2018-Feb-21 12:00N 25°47' W 080°11'0 0.0
2018-Feb-21 11:30N 25°47' W 080°11'0 0.0
2018-Feb-21 11:00N 25°47' W 080°11'0 0.0
2018-Feb-21 10:30N 25°47' W 080°11'0 0.0
2018-Feb-21 10:00N 25°47' W 080°11'0 0.0
2018-Feb-21 09:30N 25°47' W 080°11'0 0.0
2018-Feb-21 08:57N 25°47' W 080°11'0 0.0
2018-Feb-21 08:30N 25°47' W 080°11'0 0.0
2018-Feb-21 08:00N 25°47' W 080°11'0 0.0
2018-Feb-21 07:30N 25°47' W 080°11'0 0.0
2018-Feb-21 07:00N 25°47' W 080°11'0 0.0
2018-Feb-21 06:30N 25°47' W 080°11'0 0.0
2018-Feb-21 05:57N 25°47' W 080°11'0 0.0
2018-Feb-21 05:30N 25°47' W 080°11'0 0.0
2018-Feb-21 05:00N 25°47' W 080°11'0 0.0
2018-Feb-21 04:20N 25°47' W 080°11'0 0.0
2018-Feb-21 03:59N 25°47' W 080°11'0 0.0
2018-Feb-21 03:29N 25°47' W 080°11'0 0.0
2018-Feb-21 02:56N 25°47' W 080°11'0 0.0
2018-Feb-21 02:29N 25°47' W 080°11'0 0.0
2018-Feb-21 01:59N 25°47' W 080°11'0 0.0
2018-Feb-21 01:29N 25°47' W 080°11'0 0.0
2018-Feb-21 00:59N 25°47' W 080°11'0 0.0
2018-Feb-21 00:23N 25°47' W 080°11'0 0.0
2018-Feb-20 23:56N 25°47' W 080°11'0 0.0
2018-Feb-20 23:29N 25°47' W 080°11'0 0.0
2018-Feb-20 22:59N 25°47' W 080°11'0 0.0
2018-Feb-20 22:26N 25°47' W 080°11'0 0.0
2018-Feb-20 21:59N 25°47' W 080°11'0 0.0
2018-Feb-20 21:27N 25°47' W 080°11'0 0.0
2018-Feb-20 21:00N 25°47' W 080°11'0 0.0
2018-Feb-20 20:30N 25°47' W 080°11'0 0.0
2018-Feb-20 19:57N 25°47' W 080°11'0 0.0
2018-Feb-20 19:27N 25°47' W 080°11'0 0.0
2018-Feb-20 19:00N 25°47' W 080°11'0 0.0
2018-Feb-20 18:30N 25°47' W 080°11'0 0.0
2018-Feb-20 17:48N 25°47' W 080°11'0 0.0
2018-Feb-20 17:30N 25°47' W 080°11'0 0.0
2018-Feb-20 16:48N 25°47' W 080°11'0 0.0
2018-Feb-20 16:29N 25°47' W 080°11'0 0.0
2018-Feb-20 15:59N 25°47' W 080°11'0 0.0
2018-Feb-20 15:29N 25°47' W 080°11'0 0.0
2018-Feb-20 14:56N 25°47' W 080°11'0 0.0
2018-Feb-20 14:25N 25°47' W 080°11'0 0.0
2018-Feb-20 14:01N 25°47' W 080°11'0 0.0
2018-Feb-20 13:31N 25°47' W 080°11'0 0.0
2018-Feb-20 12:52N 25°47' W 080°11'0 0.0
2018-Feb-20 12:30N 25°47' W 080°11'0 0.0
2018-Feb-20 11:49N 25°47' W 080°11'0 0.0
2018-Feb-20 11:24N 25°47' W 080°11'0 0.0
2018-Feb-20 10:57N 25°47' W 080°11'0 0.0
2018-Feb-20 10:27N 25°47' W 080°11'0 0.0
2018-Feb-20 09:57N 25°47' W 080°11'0 0.0
2018-Feb-20 09:30N 25°47' W 080°11'0 0.0
2018-Feb-20 08:57N 25°47' W 080°11'0 0.0
2018-Feb-20 08:30N 25°47' W 080°11'0 0.0
2018-Feb-20 07:54N 25°47' W 080°11'0 0.0
2018-Feb-20 07:27N 25°47' W 080°11'0 0.0
2018-Feb-20 06:47N 25°47' W 080°11'0 0.0
2018-Feb-20 06:29N 25°47' W 080°11'0 0.0
2018-Feb-20 05:53N 25°47' W 080°11'0 0.0
2018-Feb-20 05:29N 25°47' W 080°11'0 0.0
2018-Feb-20 04:59N 25°47' W 080°11'0 0.0
2018-Feb-20 04:29N 25°47' W 080°11'0 0.0
2018-Feb-20 03:44N 25°47' W 080°11'0 0.0
2018-Feb-20 03:29N 25°47' W 080°11'0 0.0
2018-Feb-20 02:59N 25°47' W 080°11'0 0.0
2018-Feb-20 02:26N 25°47' W 080°11'0 0.0
2018-Feb-20 01:53N 25°47' W 080°11'0 0.0
2018-Feb-20 01:29N 25°47' W 080°11'0 0.0
2018-Feb-20 00:59N 25°47' W 080°11'0 0.0
2018-Feb-20 00:27N 25°47' W 080°11'0 0.3
2018-Feb-20 00:00N 25°47' W 080°11'2 3.4
2018-Feb-19 23:30N 25°45' W 080°11'0 0.7
2018-Feb-19 22:59N 25°45' W 080°10'0 0.0
2018-Feb-19 22:30N 25°45' W 080°10'0 0.0
2018-Feb-19 22:00N 25°45' W 080°10'0 0.0
2018-Feb-19 21:30N 25°45' W 080°10'0 0.0
2018-Feb-19 21:00N 25°45' W 080°10'0 0.0
2018-Feb-19 20:30N 25°45' W 080°10'0 0.0
2018-Feb-19 20:00N 25°45' W 080°10'0 0.0
2018-Feb-19 19:30N 25°45' W 080°10'0 0.0
2018-Feb-19 19:00N 25°45' W 080°10'1 1.1
2018-Feb-19 18:30N 25°45' W 080°11'2 3.1
2018-Feb-19 17:58N 25°47' W 080°11'1 2.8
2018-Feb-19 17:31N 25°45' W 080°11'1 1.7
2018-Feb-19 17:00N 25°45' W 080°10'2 3.8
2018-Feb-19 16:30N 25°47' W 080°11'0 0.2
2018-Feb-19 16:00N 25°46' W 080°11'2 3.8
2018-Feb-19 15:30N 25°45' W 080°10'2 3.4
2018-Feb-19 15:00N 25°46' W 080°11'0 0.7
2018-Feb-19 14:30N 25°47' W 080°11'0 0.0
2018-Feb-19 14:00N 25°47' W 080°11'0 0.3
2018-Feb-19 13:30N 25°47' W 080°11'0 0.0
2018-Feb-19 13:00N 25°47' W 080°11'0 0.0
2018-Feb-19 12:30N 25°47' W 080°11'0 0.0
2018-Feb-19 12:00N 25°47' W 080°11'0 0.0
2018-Feb-19 07:50N 25°47' W 080°11'0 0.0
2018-Feb-19 07:30N 25°47' W 080°11'0 0.0
2018-Feb-19 07:00N 25°47' W 080°11'0 0.0
2018-Feb-19 06:30N 25°47' W 080°11'0 0.0
2018-Feb-19 06:00N 25°47' W 080°11'0 0.0
2018-Feb-19 05:30N 25°47' W 080°11'0 0.0
2018-Feb-19 05:00N 25°47' W 080°11'0 0.0
2018-Feb-19 04:25N 25°47' W 080°11'0 0.0
2018-Feb-19 03:59N 25°47' W 080°11'0 0.0
2018-Feb-19 03:29N 25°47' W 080°11'0 0.0
2018-Feb-19 03:00N 25°47' W 080°11'0 0.0
2018-Feb-19 02:30N 25°47' W 080°11'0 0.0
2018-Feb-19 02:00N 25°47' W 080°11'0 0.0
2018-Feb-19 01:30N 25°47' W 080°11'0 0.0
2018-Feb-19 01:00N 25°47' W 080°11'1 1.3
2018-Feb-19 00:31N 25°46' W 080°11'1 3.0
2018-Feb-19 00:00N 25°45' W 080°10'0 0.9
2018-Feb-18 23:31N 25°45' W 080°11'2 3.3
2018-Feb-18 23:00N 25°47' W 080°11'2 4.1
2018-Feb-18 22:31N 25°45' W 080°10'0 0.3
2018-Feb-18 22:01N 25°45' W 080°10'2 3.7
2018-Feb-18 21:30N 25°47' W 080°11'2 3.9
2018-Feb-18 21:00N 25°45' W 080°10'0 0.2
2018-Feb-18 20:31N 25°45' W 080°10'2 3.6
2018-Feb-18 20:01N 25°47' W 080°11'2 3.8
2018-Feb-18 19:31N 25°45' W 080°10'0 0.2
2018-Feb-18 19:00N 25°45' W 080°10'2 3.5
2018-Feb-18 18:31N 25°46' W 080°11'0 1.0
2018-Feb-18 18:01N 25°46' W 080°11'1 2.6
2018-Feb-18 17:31N 25°45' W 080°10'2 4.0
2018-Feb-18 17:01N 25°47' W 080°11'1 2.0
2018-Feb-18 16:30N 25°46' W 080°11'1 2.2
2018-Feb-18 16:00N 25°45' W 080°10'2 4.0
2018-Feb-18 15:31N 25°47' W 080°11'0 0.0
2018-Feb-18 15:01N 25°47' W 080°11'0 0.1
2018-Feb-18 14:30N 25°47' W 080°11'0 0.2
2018-Feb-18 14:01N 25°47' W 080°11'0 0.0
2018-Feb-18 13:28N 25°47' W 080°11'0 0.0
2018-Feb-17 12:55N 25°47' W 080°11'0 0.0
2018-Feb-17 12:30N 25°47' W 080°11'0 0.0
2018-Feb-17 11:57N 25°47' W 080°11'0 0.0
2018-Feb-17 11:23N 25°47' W 080°11'0 0.0
2018-Feb-17 10:53N 25°47' W 080°11'0 0.0
2018-Feb-17 10:29N 25°47' W 080°11'0 0.0
2018-Feb-17 09:59N 25°47' W 080°11'0 0.0
2018-Feb-17 09:26N 25°47' W 080°11'0 0.0
2018-Feb-17 08:56N 25°47' W 080°11'0 0.0
2018-Feb-17 08:29N 25°47' W 080°11'0 0.0
2018-Feb-17 07:59N 25°47' W 080°11'0 0.0
2018-Feb-17 07:20N 25°47' W 080°11'0 0.0
2018-Feb-17 06:56N 25°47' W 080°11'0 0.0
2018-Feb-17 06:20N 25°47' W 080°11'0 0.0
2018-Feb-17 05:59N 25°47' W 080°11'0 0.0
2018-Feb-17 05:26N 25°47' W 080°11'0 0.0
2018-Feb-17 04:59N 25°47' W 080°11'0 0.0
2018-Feb-17 04:29N 25°47' W 080°11'0 0.0
2018-Feb-17 03:50N 25°47' W 080°11'0 0.0
2018-Feb-17 03:29N 25°47' W 080°11'0 0.0
2018-Feb-17 02:59N 25°47' W 080°11'0 0.0
2018-Feb-17 02:26N 25°47' W 080°11'0 0.0
2018-Feb-17 01:56N 25°47' W 080°11'0 0.0
2018-Feb-17 01:11N 25°47' W 080°11'0 0.0
2018-Feb-17 00:59N 25°47' W 080°11'0 0.0
2018-Feb-17 00:29N 25°47' W 080°11'0 0.0
2018-Feb-16 23:59N 25°47' W 080°11'0 0.0
2018-Feb-16 23:26N 25°47' W 080°11'0 0.0
2018-Feb-16 22:59N 25°47' W 080°11'0 0.0
2018-Feb-16 22:26N 25°47' W 080°11'0 0.0
2018-Feb-16 21:59N 25°47' W 080°11'0 0.0
2018-Feb-16 21:23N 25°47' W 080°11'0 0.0
2018-Feb-16 20:59N 25°47' W 080°11'0 0.0
2018-Feb-16 20:20N 25°47' W 080°11'0 0.0
2018-Feb-16 19:53N 25°47' W 080°11'0 0.0
2018-Feb-16 19:29N 25°47' W 080°11'0 0.0
2018-Feb-16 18:59N 25°47' W 080°11'0 0.0
2018-Feb-16 18:29N 25°47' W 080°11'0 0.0
2018-Feb-16 17:56N 25°47' W 080°11'0 0.0
2018-Feb-16 17:08N 25°47' W 080°11'0 0.0
2018-Feb-16 16:59N 25°47' W 080°11'0 0.0
2018-Feb-16 16:14N 25°47' W 080°11'0 0.0
2018-Feb-16 15:50N 25°47' W 080°11'0 0.0
2018-Feb-16 15:17N 25°47' W 080°11'0 0.0
2018-Feb-16 14:50N 25°47' W 080°11'0 0.0
2018-Feb-16 14:23N 25°47' W 080°11'0 0.0
2018-Feb-16 13:41N 25°47' W 080°11'0 0.0
2018-Feb-16 13:29N 25°47' W 080°11'0 0.0
2018-Feb-16 12:53N 25°47' W 080°11'0 0.0
2018-Feb-16 12:08N 25°47' W 080°11'0 0.0
2018-Feb-16 11:50N 25°47' W 080°11'0 0.0
2018-Feb-16 11:27N 25°47' W 080°11'0 0.0
2018-Feb-16 10:51N 25°47' W 080°11'0 0.0
2018-Feb-16 10:30N 25°47' W 080°11'0 0.0
2018-Feb-16 09:57N 25°47' W 080°11'0 0.0
2018-Feb-16 09:27N 25°47' W 080°11'0 0.0
2018-Feb-16 09:00N 25°47' W 080°11'0 0.0
2018-Feb-16 08:30N 25°47' W 080°11'0 0.0
2018-Feb-16 08:00N 25°47' W 080°11'0 0.0
2018-Feb-16 07:30N 25°47' W 080°11'0 0.0
2018-Feb-16 07:00N 25°47' W 080°11'0 0.0
2018-Feb-16 06:27N 25°47' W 080°11'0 0.0
2018-Feb-16 06:00N 25°47' W 080°11'0 0.0
2018-Feb-16 05:30N 25°47' W 080°11'0 0.0
2018-Feb-16 04:54N 25°47' W 080°11'0 0.0
2018-Feb-16 04:30N 25°47' W 080°11'0 0.0
2018-Feb-16 04:00N 25°47' W 080°11'0 0.0
2018-Feb-16 03:21N 25°47' W 080°11'0 0.0
2018-Feb-16 01:54N 25°47' W 080°11'0 0.0
2018-Feb-16 01:24N 25°47' W 080°11'0 0.0
2018-Feb-16 01:00N 25°47' W 080°11'0 0.0
2018-Feb-16 00:24N 25°47' W 080°11'0 0.0
2018-Feb-16 00:00N 25°47' W 080°11'0 0.0
2018-Feb-15 23:15N 25°47' W 080°11'0 0.0
2018-Feb-15 22:54N 25°47' W 080°11'0 0.0
2018-Feb-15 22:22N 25°47' W 080°11'0 0.0
2018-Feb-15 21:59N 25°47' W 080°11'0 0.0
2018-Feb-15 21:23N 25°47' W 080°11'0 0.0
2018-Feb-15 20:50N 25°47' W 080°11'0 0.0
2018-Feb-15 20:23N 25°47' W 080°11'0 0.0
2018-Feb-15 19:59N 25°47' W 080°11'0 0.0
2018-Feb-15 19:26N 25°47' W 080°11'0 0.0
2018-Feb-15 18:38N 25°47' W 080°11'0 0.0
2018-Feb-15 18:20N 25°47' W 080°11'0 0.0
2018-Feb-15 17:56N 25°47' W 080°11'0 0.0
2018-Feb-15 17:20N 25°47' W 080°11'0 0.0
2018-Feb-15 16:53N 25°47' W 080°11'0 0.0
2018-Feb-15 16:26N 25°47' W 080°11'0 0.0
2018-Feb-15 15:56N 25°47' W 080°11'0 0.0
2018-Feb-15 15:26N 25°47' W 080°11'0 0.0
2018-Feb-15 14:56N 25°47' W 080°11'0 0.0
2018-Feb-15 14:29N 25°47' W 080°11'0 0.0
2018-Feb-15 13:59N 25°47' W 080°11'0 0.0
2018-Feb-15 13:29N 25°47' W 080°11'0 0.0
2018-Feb-15 12:56N 25°47' W 080°11'0 0.0
2018-Feb-15 12:23N 25°47' W 080°11'0 0.0
2018-Feb-15 11:56N 25°47' W 080°11'0 0.0
2018-Feb-15 11:26N 25°47' W 080°11'0 0.0
2018-Feb-15 10:50N 25°47' W 080°11'0 0.0
2018-Feb-15 10:26N 25°47' W 080°11'0 0.0
2018-Feb-15 09:50N 25°47' W 080°11'0 0.0
2018-Feb-15 09:20N 25°47' W 080°11'0 0.0
2018-Feb-15 08:56N 25°47' W 080°11'0 0.0
2018-Feb-15 08:29N 25°47' W 080°11'0 0.0
2018-Feb-15 07:56N 25°47' W 080°11'0 0.0
2018-Feb-15 07:29N 25°47' W 080°11'0 0.0
2018-Feb-15 06:50N 25°47' W 080°11'0 0.0
2018-Feb-15 06:20N 25°47' W 080°11'0 0.0
2018-Feb-15 05:59N 25°47' W 080°11'0 0.0
2018-Feb-15 05:23N 25°47' W 080°11'0 0.0
2018-Feb-15 05:00N 25°47' W 080°11'0 0.0
2018-Feb-15 04:29N 25°47' W 080°11'0 0.0
2018-Feb-15 03:59N 25°47' W 080°11'0 0.0
2018-Feb-15 03:29N 25°47' W 080°11'0 0.0
2018-Feb-15 02:59N 25°47' W 080°11'0 0.0
2018-Feb-15 02:23N 25°47' W 080°11'0 0.0
2018-Feb-15 01:56N 25°47' W 080°11'0 0.0
2018-Feb-15 01:29N 25°47' W 080°11'0 0.0
2018-Feb-15 00:59N 25°47' W 080°11'0 0.0
2018-Feb-15 00:29N 25°47' W 080°11'0 0.0
2018-Feb-14 23:53N 25°47' W 080°11'0 0.0
2018-Feb-14 23:29N 25°47' W 080°11'0 0.0
2018-Feb-14 22:56N 25°47' W 080°11'0 0.0
2018-Feb-14 22:29N 25°47' W 080°11'0 0.0
2018-Feb-14 21:56N 25°47' W 080°11'0 0.0
2018-Feb-14 21:29N 25°47' W 080°11'0 0.0
2018-Feb-14 20:59N 25°47' W 080°11'0 0.0
2018-Feb-14 20:29N 25°47' W 080°11'0 0.0
2018-Feb-14 19:59N 25°47' W 080°11'0 0.0
2018-Feb-14 19:29N 25°47' W 080°11'0 0.0
2018-Feb-14 18:59N 25°47' W 080°11'0 0.0
2018-Feb-14 18:29N 25°47' W 080°11'0 0.0
2018-Feb-14 17:35N 25°47' W 080°11'0 0.0
2018-Feb-14 17:23N 25°47' W 080°11'0 0.0
2018-Feb-14 16:53N 25°47' W 080°11'0 0.0
2018-Feb-14 16:26N 25°47' W 080°11'0 0.0
2018-Feb-14 15:56N 25°47' W 080°11'0 0.0
2018-Feb-14 15:26N 25°47' W 080°11'0 0.0
2018-Feb-14 14:59N 25°47' W 080°11'0 0.0
2018-Feb-14 14:26N 25°47' W 080°11'0 0.0
2018-Feb-14 13:53N 25°47' W 080°11'0 0.0
2018-Feb-14 13:29N 25°47' W 080°11'0 0.0
2018-Feb-14 12:53N 25°47' W 080°11'0 0.0
2018-Feb-14 12:23N 25°47' W 080°11'0 0.0
2018-Feb-14 11:59N 25°47' W 080°11'0 0.0
2018-Feb-14 11:29N 25°47' W 080°11'0 0.0
2018-Feb-14 10:59N 25°47' W 080°11'0 0.0
2018-Feb-14 10:29N 25°47' W 080°11'0 0.0
2018-Feb-14 09:47N 25°47' W 080°11'0 0.0
2018-Feb-14 09:29N 25°47' W 080°11'0 0.0
2018-Feb-14 08:56N 25°47' W 080°11'0 0.0
2018-Feb-14 08:29N 25°47' W 080°11'0 0.0
2018-Feb-14 07:59N 25°47' W 080°11'0 0.0
2018-Feb-14 07:29N 25°47' W 080°11'0 0.0
2018-Feb-14 06:59N 25°47' W 080°11'0 0.0
2018-Feb-14 06:29N 25°47' W 080°11'0 0.0
2018-Feb-14 05:59N 25°47' W 080°11'0 0.0
2018-Feb-14 05:29N 25°47' W 080°11'0 0.0
2018-Feb-14 04:59N 25°47' W 080°11'0 0.0
2018-Feb-14 04:29N 25°47' W 080°11'0 0.0
2018-Feb-14 03:59N 25°47' W 080°11'0 0.0
2018-Feb-14 03:29N 25°47' W 080°11'0 0.0
2018-Feb-14 02:59N 25°47' W 080°11'0 0.0
2018-Feb-14 02:29N 25°47' W 080°11'0 0.0
2018-Feb-14 01:59N 25°47' W 080°11'0 0.0
2018-Feb-14 01:29N 25°47' W 080°11'0 0.0
2018-Feb-14 00:59N 25°47' W 080°11'0 0.0
2018-Feb-14 00:29N 25°47' W 080°11'0 0.0
2018-Feb-13 23:53N 25°47' W 080°11'0 0.0
2018-Feb-13 23:29N 25°47' W 080°11'0 0.0
2018-Feb-13 22:59N 25°47' W 080°11'  
Track history (hours):
 
Tides and Currents Weather Stations Pressure Air Temp Water Temp Dewpoint Dewpoint Depression Visibility Wind Speed Wind Dir Waves Ship Positions

Biscayne Lady

Owner: Biscayne Lady Cruises, Miami, FL. More information available from US FCC via Universal Licensing System and Coast Guard Vessel Documentation Center.

Last reported at 2018-Feb-23 22:56 UTC. Time now 2018-Feb-23 23:57 UTC.
Position N 26°10' W 080°06'.

Type: Passenger vessel. MMSI: 366872810.

Date/timePositionNaut miles runAvg speedWind from/ knotsBaromVisibWave heightAir tempDewpointWater temp
2018-Feb-23 22:56N 26°10' W 080°06'0 0.0
2018-Feb-23 22:29N 26°10' W 080°06'0 0.0
2018-Feb-23 21:59N 26°10' W 080°06'0 0.0
2018-Feb-23 21:29N 26°10' W 080°06'0 0.0
2018-Feb-23 21:00N 26°10' W 080°06'2 3.5
2018-Feb-23 20:29N 26°08' W 080°07'2 3.6
2018-Feb-23 20:00N 26°07' W 080°07'4 7.1
2018-Feb-23 19:31N 26°03' W 080°07'2 5.0
2018-Feb-23 19:01N 26°01' W 080°07'3 5.7
2018-Feb-23 18:30N 25°58' W 080°07'3 5.8
2018-Feb-23 18:00N 25°55' W 080°08'2 4.2
2018-Feb-23 17:30N 25°53' W 080°09'3 5.2
2018-Feb-23 17:00N 25°51' W 080°10'3 7.0
2018-Feb-23 16:30N 25°47' W 080°11'1 1.3
2018-Feb-23 15:59N 25°47' W 080°11'0 0.0
2018-Feb-23 15:29N 25°47' W 080°11'0 0.0
2018-Feb-23 14:58N 25°47' W 080°11'0 0.0
2018-Feb-23 14:28N 25°47' W 080°11'0 0.0
2018-Feb-23 13:55N 25°47' W 080°11'0 0.0
2018-Feb-23 13:19N 25°47' W 080°11'0 0.0
2018-Feb-23 12:58N 25°47' W 080°11'0 0.0
2018-Feb-23 12:22N 25°47' W 080°11'0 0.0
2018-Feb-23 11:46N 25°47' W 080°11'0 0.0
2018-Feb-23 11:25N 25°47' W 080°11'0 0.0
2018-Feb-23 10:08N 25°47' W 080°11'0 0.0
2018-Feb-23 09:59N 25°47' W 080°11'0 0.0
2018-Feb-23 09:17N 25°47' W 080°11'0 0.0
2018-Feb-23 08:47N 25°47' W 080°11'0 0.0
2018-Feb-23 08:29N 25°47' W 080°11'0 0.0
2018-Feb-23 07:59N 25°47' W 080°11'0 0.0
2018-Feb-23 07:20N 25°47' W 080°11'0 0.0
2018-Feb-23 06:56N 25°47' W 080°11'0 0.0
2018-Feb-23 06:29N 25°47' W 080°11'0 0.0
2018-Feb-23 05:56N 25°47' W 080°11'0 0.0
2018-Feb-23 05:29N 25°47' W 080°11'0 0.0
2018-Feb-23 04:59N 25°47' W 080°11'0 0.0
2018-Feb-23 04:26N 25°47' W 080°11'0 0.0
2018-Feb-23 03:59N 25°47' W 080°11'0 0.0
2018-Feb-23 03:23N 25°47' W 080°11'0 0.0
2018-Feb-23 02:29N 25°47' W 080°11'0 0.0
2018-Feb-23 01:59N 25°47' W 080°11'0 0.0
2018-Feb-23 01:29N 25°47' W 080°11'0 0.0
2018-Feb-23 00:59N 25°47' W 080°11'0 0.0
2018-Feb-23 00:29N 25°47' W 080°11'0 0.0
2018-Feb-22 23:50N 25°47' W 080°11'0 0.0
2018-Feb-22 23:26N 25°47' W 080°11'0 0.0
2018-Feb-22 22:59N 25°47' W 080°11'0 0.0
2018-Feb-22 22:26N 25°47' W 080°11'0 0.0
2018-Feb-22 21:59N 25°47' W 080°11'0 0.0
2018-Feb-22 21:29N 25°47' W 080°11'0 0.0
2018-Feb-22 20:59N 25°47' W 080°11'0 0.0
2018-Feb-22 20:30N 25°47' W 080°11'0 0.0
2018-Feb-22 20:00N 25°47' W 080°11'0 0.0
2018-Feb-22 19:27N 25°47' W 080°11'0 0.0
2018-Feb-22 19:00N 25°47' W 080°11'0 0.0
2018-Feb-22 18:30N 25°47' W 080°11'0 0.0
2018-Feb-22 17:56N 25°47' W 080°11'0 0.0
2018-Feb-22 17:14N 25°47' W 080°11'0 0.0
2018-Feb-22 16:59N 25°47' W 080°11'0 0.0
2018-Feb-22 16:29N 25°47' W 080°11'0 0.0
2018-Feb-22 15:59N 25°47' W 080°11'0 0.0
2018-Feb-22 15:26N 25°47' W 080°11'0 0.0
2018-Feb-22 14:56N 25°47' W 080°11'0 0.0
2018-Feb-22 14:26N 25°47' W 080°11'0 0.0
2018-Feb-22 13:47N 25°47' W 080°11'0 0.0
2018-Feb-22 13:29N 25°47' W 080°11'0 0.0
2018-Feb-22 12:59N 25°47' W 080°11'0 0.0
2018-Feb-22 12:29N 25°47' W 080°11'0 0.0
2018-Feb-22 11:56N 25°47' W 080°11'0 0.0
2018-Feb-22 11:26N 25°47' W 080°11'0 0.0
2018-Feb-22 10:59N 25°47' W 080°11'0 0.0
2018-Feb-22 10:29N 25°47' W 080°11'0 0.0
2018-Feb-22 09:56N 25°47' W 080°11'0 0.0
2018-Feb-22 09:29N 25°47' W 080°11'0 0.0
2018-Feb-22 08:53N 25°47' W 080°11'0 0.0
2018-Feb-22 08:29N 25°47' W 080°11'0 0.0
2018-Feb-22 07:56N 25°47' W 080°11'0 0.0
2018-Feb-22 07:17N 25°47' W 080°11'0 0.0
2018-Feb-22 06:59N 25°47' W 080°11'0 0.0
2018-Feb-22 06:26N 25°47' W 080°11'0 0.0
2018-Feb-22 05:59N 25°47' W 080°11'0 0.0
2018-Feb-22 05:20N 25°47' W 080°11'0 0.0
2018-Feb-22 04:56N 25°47' W 080°11'0 0.0
2018-Feb-22 04:26N 25°47' W 080°11'0 0.0
2018-Feb-22 03:57N 25°47' W 080°11'0 0.0
2018-Feb-22 03:30N 25°47' W 080°11'1 1.1
2018-Feb-22 03:00N 25°46' W 080°11'1 2.1
2018-Feb-22 02:30N 25°47' W 080°10'1 1.6
2018-Feb-22 02:00N 25°46' W 080°10'0 0.4
2018-Feb-22 01:29N 25°46' W 080°10'1 2.8
2018-Feb-22 01:00N 25°47' W 080°11'2 3.0
2018-Feb-22 00:30N 25°46' W 080°09'2 3.1
2018-Feb-22 00:00N 25°47' W 080°11'1 1.4
2018-Feb-21 23:29N 25°46' W 080°11'0 0.0
2018-Feb-21 22:59N 25°46' W 080°11'1 1.2
2018-Feb-21 22:30N 25°47' W 080°11'0 0.0
2018-Feb-21 22:00N 25°47' W 080°11'0 0.0
2018-Feb-21 21:28N 25°47' W 080°11'0 0.0
2018-Feb-21 20:58N 25°47' W 080°11'0 0.0
2018-Feb-21 20:28N 25°47' W 080°11'0 0.0
2018-Feb-21 19:52N 25°47' W 080°11'0 0.0
2018-Feb-21 19:22N 25°47' W 080°11'0 0.0
2018-Feb-21 18:58N 25°47' W 080°11'0 0.0
2018-Feb-21 18:26N 25°47' W 080°11'0 0.5
2018-Feb-21 17:56N 25°46' W 080°11'0 0.5
2018-Feb-21 17:28N 25°47' W 080°11'0 0.0
2018-Feb-21 16:46N 25°47' W 080°11'0 0.0
2018-Feb-21 16:28N 25°47' W 080°11'0 0.0
2018-Feb-21 15:55N 25°47' W 080°11'0 0.0
2018-Feb-21 15:24N 25°47' W 080°11'0 0.0
2018-Feb-21 15:00N 25°47' W 080°11'0 0.0
2018-Feb-21 14:30N 25°47' W 080°11'0 0.0
2018-Feb-21 14:00N 25°47' W 080°11'0 0.0
2018-Feb-21 13:30N 25°47' W 080°11'0 0.0
2018-Feb-21 12:57N 25°47' W 080°11'0 0.0
2018-Feb-21 12:30N 25°47' W 080°11'0 0.0
2018-Feb-21 12:00N 25°47' W 080°11'0 0.0
2018-Feb-21 11:30N 25°47' W 080°11'0 0.0
2018-Feb-21 11:00N 25°47' W 080°11'0 0.0
2018-Feb-21 10:30N 25°47' W 080°11'0 0.0
2018-Feb-21 10:00N 25°47' W 080°11'0 0.0
2018-Feb-21 09:30N 25°47' W 080°11'0 0.0
2018-Feb-21 08:57N 25°47' W 080°11'0 0.0
2018-Feb-21 08:30N 25°47' W 080°11'0 0.0
2018-Feb-21 08:00N 25°47' W 080°11'0 0.0
2018-Feb-21 07:30N 25°47' W 080°11'0 0.0
2018-Feb-21 07:00N 25°47' W 080°11'0 0.0
2018-Feb-21 06:30N 25°47' W 080°11'0 0.0
2018-Feb-21 05:57N 25°47' W 080°11'0 0.0
2018-Feb-21 05:30N 25°47' W 080°11'0 0.0
2018-Feb-21 05:00N 25°47' W 080°11'0 0.0
2018-Feb-21 04:20N 25°47' W 080°11'0 0.0
2018-Feb-21 03:59N 25°47' W 080°11'0 0.0
2018-Feb-21 03:29N 25°47' W 080°11'0 0.0
2018-Feb-21 02:56N 25°47' W 080°11'0 0.0
2018-Feb-21 02:29N 25°47' W 080°11'0 0.0
2018-Feb-21 01:59N 25°47' W 080°11'0 0.0
2018-Feb-21 01:29N 25°47' W 080°11'0 0.0
2018-Feb-21 00:59N 25°47' W 080°11'0 0.0
2018-Feb-21 00:23N 25°47' W 080°11'0 0.0
2018-Feb-20 23:56N 25°47' W 080°11'0 0.0
2018-Feb-20 23:29N 25°47' W 080°11'0 0.0
2018-Feb-20 22:59N 25°47' W 080°11'0 0.0
2018-Feb-20 22:26N 25°47' W 080°11'0 0.0
2018-Feb-20 21:59N 25°47' W 080°11'0 0.0
2018-Feb-20 21:27N 25°47' W 080°11'0 0.0
2018-Feb-20 21:00N 25°47' W 080°11'0 0.0
2018-Feb-20 20:30N 25°47' W 080°11'0 0.0
2018-Feb-20 19:57N 25°47' W 080°11'0 0.0
2018-Feb-20 19:27N 25°47' W 080°11'0 0.0
2018-Feb-20 19:00N 25°47' W 080°11'0 0.0
2018-Feb-20 18:30N 25°47' W 080°11'0 0.0
2018-Feb-20 17:48N 25°47' W 080°11'0 0.0
2018-Feb-20 17:30N 25°47' W 080°11'0 0.0
2018-Feb-20 16:48N 25°47' W 080°11'0 0.0
2018-Feb-20 16:29N 25°47' W 080°11'0 0.0
2018-Feb-20 15:59N 25°47' W 080°11'0 0.0
2018-Feb-20 15:29N 25°47' W 080°11'0 0.0
2018-Feb-20 14:56N 25°47' W 080°11'0 0.0
2018-Feb-20 14:25N 25°47' W 080°11'0 0.0
2018-Feb-20 14:01N 25°47' W 080°11'0 0.0
2018-Feb-20 13:31N 25°47' W 080°11'0 0.0
2018-Feb-20 12:52N 25°47' W 080°11'0 0.0
2018-Feb-20 12:30N 25°47' W 080°11'0 0.0
2018-Feb-20 11:49N 25°47' W 080°11'0 0.0
2018-Feb-20 11:24N 25°47' W 080°11'0 0.0
2018-Feb-20 10:57N 25°47' W 080°11'0 0.0
2018-Feb-20 10:27N 25°47' W 080°11'0 0.0
2018-Feb-20 09:57N 25°47' W 080°11'0 0.0
2018-Feb-20 09:30N 25°47' W 080°11'0 0.0
2018-Feb-20 08:57N 25°47' W 080°11'0 0.0
2018-Feb-20 08:30N 25°47' W 080°11'0 0.0
2018-Feb-20 07:54N 25°47' W 080°11'0 0.0
2018-Feb-20 07:27N 25°47' W 080°11'0 0.0
2018-Feb-20 06:47N 25°47' W 080°11'0 0.0
2018-Feb-20 06:29N 25°47' W 080°11'0 0.0
2018-Feb-20 05:53N 25°47' W 080°11'0 0.0
2018-Feb-20 05:29N 25°47' W 080°11'0 0.0
2018-Feb-20 04:59N 25°47' W 080°11'0 0.0
2018-Feb-20 04:29N 25°47' W 080°11'0 0.0
2018-Feb-20 03:44N 25°47' W 080°11'0 0.0
2018-Feb-20 03:29N 25°47' W 080°11'0 0.0
2018-Feb-20 02:59N 25°47' W 080°11'0 0.0
2018-Feb-20 02:26N 25°47' W 080°11'0 0.0
2018-Feb-20 01:53N 25°47' W 080°11'0 0.0
2018-Feb-20 01:29N 25°47' W 080°11'0 0.0
2018-Feb-20 00:59N 25°47' W 080°11'0 0.0
2018-Feb-20 00:27N 25°47' W 080°11'0 0.3
2018-Feb-20 00:00N 25°47' W 080°11'2 3.4
2018-Feb-19 23:30N 25°45' W 080°11'0 0.7
2018-Feb-19 22:59N 25°45' W 080°10'0 0.0
2018-Feb-19 22:30N 25°45' W 080°10'0 0.0
2018-Feb-19 22:00N 25°45' W 080°10'0 0.0
2018-Feb-19 21:30N 25°45' W 080°10'0 0.0
2018-Feb-19 21:00N 25°45' W 080°10'0 0.0
2018-Feb-19 20:30N 25°45' W 080°10'0 0.0
2018-Feb-19 20:00N 25°45' W 080°10'0 0.0
2018-Feb-19 19:30N 25°45' W 080°10'0 0.0
2018-Feb-19 19:00N 25°45' W 080°10'1 1.1
2018-Feb-19 18:30N 25°45' W 080°11'2 3.1
2018-Feb-19 17:58N 25°47' W 080°11'1 2.8
2018-Feb-19 17:31N 25°45' W 080°11'1 1.7
2018-Feb-19 17:00N 25°45' W 080°10'2 3.8
2018-Feb-19 16:30N 25°47' W 080°11'0 0.2
2018-Feb-19 16:00N 25°46' W 080°11'2 3.8
2018-Feb-19 15:30N 25°45' W 080°10'2 3.4
2018-Feb-19 15:00N 25°46' W 080°11'0 0.7
2018-Feb-19 14:30N 25°47' W 080°11'0 0.0
2018-Feb-19 14:00N 25°47' W 080°11'0 0.3
2018-Feb-19 13:30N 25°47' W 080°11'0 0.0
2018-Feb-19 13:00N 25°47' W 080°11'0 0.0
2018-Feb-19 12:30N 25°47' W 080°11'0 0.0
2018-Feb-19 12:00N 25°47' W 080°11'0 0.0
2018-Feb-19 07:50N 25°47' W 080°11'0 0.0
2018-Feb-19 07:30N 25°47' W 080°11'0 0.0
2018-Feb-19 07:00N 25°47' W 080°11'0 0.0
2018-Feb-19 06:30N 25°47' W 080°11'0 0.0
2018-Feb-19 06:00N 25°47' W 080°11'0 0.0
2018-Feb-19 05:30N 25°47' W 080°11'0 0.0
2018-Feb-19 05:00N 25°47' W 080°11'0 0.0
2018-Feb-19 04:25N 25°47' W 080°11'0 0.0
2018-Feb-19 03:59N 25°47' W 080°11'0 0.0
2018-Feb-19 03:29N 25°47' W 080°11'0 0.0
2018-Feb-19 03:00N 25°47' W 080°11'0 0.0
2018-Feb-19 02:30N 25°47' W 080°11'0 0.0
2018-Feb-19 02:00N 25°47' W 080°11'0 0.0
2018-Feb-19 01:30N 25°47' W 080°11'0 0.0
2018-Feb-19 01:00N 25°47' W 080°11'1 1.3
2018-Feb-19 00:31N 25°46' W 080°11'1 3.0
2018-Feb-19 00:00N 25°45' W 080°10'0 0.9
2018-Feb-18 23:31N 25°45' W 080°11'2 3.3
2018-Feb-18 23:00N 25°47' W 080°11'2 4.1
2018-Feb-18 22:31N 25°45' W 080°10'0 0.3
2018-Feb-18 22:01N 25°45' W 080°10'2 3.7
2018-Feb-18 21:30N 25°47' W 080°11'2 3.9
2018-Feb-18 21:00N 25°45' W 080°10'0 0.2
2018-Feb-18 20:31N 25°45' W 080°10'2 3.6
2018-Feb-18 20:01N 25°47' W 080°11'2 3.8
2018-Feb-18 19:31N 25°45' W 080°10'0 0.2
2018-Feb-18 19:00N 25°45' W 080°10'2 3.5
2018-Feb-18 18:31N 25°46' W 080°11'0 1.0
2018-Feb-18 18:01N 25°46' W 080°11'1 2.6
2018-Feb-18 17:31N 25°45' W 080°10'2 4.0
2018-Feb-18 17:01N 25°47' W 080°11'1 2.0
2018-Feb-18 16:30N 25°46' W 080°11'1 2.2
2018-Feb-18 16:00N 25°45' W 080°10'2 4.0
2018-Feb-18 15:31N 25°47' W 080°11'0 0.0
2018-Feb-18 15:01N 25°47' W 080°11'0 0.1
2018-Feb-18 14:30N 25°47' W 080°11'0 0.2
2018-Feb-18 14:01N 25°47' W 080°11'0 0.0
2018-Feb-18 13:28N 25°47' W 080°11'0 0.0
2018-Feb-17 12:55N 25°47' W 080°11'0 0.0
2018-Feb-17 12:30N 25°47' W 080°11'0 0.0
2018-Feb-17 11:57N 25°47' W 080°11'0 0.0
2018-Feb-17 11:23N 25°47' W 080°11'0 0.0
2018-Feb-17 10:53N 25°47' W 080°11'0 0.0
2018-Feb-17 10:29N 25°47' W 080°11'0 0.0
2018-Feb-17 09:59N 25°47' W 080°11'0 0.0
2018-Feb-17 09:26N 25°47' W 080°11'0 0.0
2018-Feb-17 08:56N 25°47' W 080°11'0 0.0
2018-Feb-17 08:29N 25°47' W 080°11'0 0.0
2018-Feb-17 07:59N 25°47' W 080°11'0 0.0
2018-Feb-17 07:20N 25°47' W 080°11'0 0.0
2018-Feb-17 06:56N 25°47' W 080°11'0 0.0
2018-Feb-17 06:20N 25°47' W 080°11'0 0.0
2018-Feb-17 05:59N 25°47' W 080°11'0 0.0
2018-Feb-17 05:26N 25°47' W 080°11'0 0.0
2018-Feb-17 04:59N 25°47' W 080°11'0 0.0
2018-Feb-17 04:29N 25°47' W 080°11'0 0.0
2018-Feb-17 03:50N 25°47' W 080°11'0 0.0
2018-Feb-17 03:29N 25°47' W 080°11'0 0.0
2018-Feb-17 02:59N 25°47' W 080°11'0 0.0
2018-Feb-17 02:26N 25°47' W 080°11'0 0.0
2018-Feb-17 01:56N 25°47' W 080°11'0 0.0
2018-Feb-17 01:11N 25°47' W 080°11'0 0.0
2018-Feb-17 00:59N 25°47' W 080°11'0 0.0
2018-Feb-17 00:29N 25°47' W 080°11'0 0.0
2018-Feb-16 23:59N 25°47' W 080°11'0 0.0
2018-Feb-16 23:26N 25°47' W 080°11'0 0.0
2018-Feb-16 22:59N 25°47' W 080°11'0 0.0
2018-Feb-16 22:26N 25°47' W 080°11'0 0.0
2018-Feb-16 21:59N 25°47' W 080°11'0 0.0
2018-Feb-16 21:23N 25°47' W 080°11'0 0.0
2018-Feb-16 20:59N 25°47' W 080°11'0 0.0
2018-Feb-16 20:20N 25°47' W 080°11'0 0.0
2018-Feb-16 19:53N 25°47' W 080°11'0 0.0
2018-Feb-16 19:29N 25°47' W 080°11'0 0.0
2018-Feb-16 18:59N 25°47' W 080°11'0 0.0
2018-Feb-16 18:29N 25°47' W 080°11'0 0.0
2018-Feb-16 17:56N 25°47' W 080°11'0 0.0
2018-Feb-16 17:08N 25°47' W 080°11'0 0.0
2018-Feb-16 16:59N 25°47' W 080°11'0 0.0
2018-Feb-16 16:14N 25°47' W 080°11'0 0.0
2018-Feb-16 15:50N 25°47' W 080°11'0 0.0
2018-Feb-16 15:17N 25°47' W 080°11'0 0.0
2018-Feb-16 14:50N 25°47' W 080°11'0 0.0
2018-Feb-16 14:23N 25°47' W 080°11'0 0.0
2018-Feb-16 13:41N 25°47' W 080°11'0 0.0
2018-Feb-16 13:29N 25°47' W 080°11'0 0.0
2018-Feb-16 12:53N 25°47' W 080°11'0 0.0
2018-Feb-16 12:08N 25°47' W 080°11'0 0.0
2018-Feb-16 11:50N 25°47' W 080°11'0 0.0
2018-Feb-16 11:27N 25°47' W 080°11'0 0.0
2018-Feb-16 10:51N 25°47' W 080°11'0 0.0
2018-Feb-16 10:30N 25°47' W 080°11'0 0.0
2018-Feb-16 09:57N 25°47' W 080°11'0 0.0
2018-Feb-16 09:27N 25°47' W 080°11'0 0.0
2018-Feb-16 09:00N 25°47' W 080°11'0 0.0
2018-Feb-16 08:30N 25°47' W 080°11'0 0.0
2018-Feb-16 08:00N 25°47' W 080°11'0 0.0
2018-Feb-16 07:30N 25°47' W 080°11'0 0.0
2018-Feb-16 07:00N 25°47' W 080°11'0 0.0
2018-Feb-16 06:27N 25°47' W 080°11'0 0.0
2018-Feb-16 06:00N 25°47' W 080°11'0 0.0
2018-Feb-16 05:30N 25°47' W 080°11'0 0.0
2018-Feb-16 04:54N 25°47' W 080°11'0 0.0
2018-Feb-16 04:30N 25°47' W 080°11'0 0.0
2018-Feb-16 04:00N 25°47' W 080°11'0 0.0
2018-Feb-16 03:21N 25°47' W 080°11'0 0.0
2018-Feb-16 01:54N 25°47' W 080°11'0 0.0
2018-Feb-16 01:24N 25°47' W 080°11'0 0.0
2018-Feb-16 01:00N 25°47' W 080°11'0 0.0
2018-Feb-16 00:24N 25°47' W 080°11'0 0.0
2018-Feb-16 00:00N 25°47' W 080°11'0 0.0
2018-Feb-15 23:15N 25°47' W 080°11'0 0.0
2018-Feb-15 22:54N 25°47' W 080°11'0 0.0
2018-Feb-15 22:22N 25°47' W 080°11'0 0.0
2018-Feb-15 21:59N 25°47' W 080°11'0 0.0
2018-Feb-15 21:23N 25°47' W 080°11'0 0.0
2018-Feb-15 20:50N 25°47' W 080°11'0 0.0
2018-Feb-15 20:23N 25°47' W 080°11'0 0.0
2018-Feb-15 19:59N 25°47' W 080°11'0 0.0
2018-Feb-15 19:26N 25°47' W 080°11'0 0.0
2018-Feb-15 18:38N 25°47' W 080°11'0 0.0
2018-Feb-15 18:20N 25°47' W 080°11'0 0.0
2018-Feb-15 17:56N 25°47' W 080°11'0 0.0
2018-Feb-15 17:20N 25°47' W 080°11'0 0.0
2018-Feb-15 16:53N 25°47' W 080°11'0 0.0
2018-Feb-15 16:26N 25°47' W 080°11'0 0.0
2018-Feb-15 15:56N 25°47' W 080°11'0 0.0
2018-Feb-15 15:26N 25°47' W 080°11'0 0.0
2018-Feb-15 14:56N 25°47' W 080°11'0 0.0
2018-Feb-15 14:29N 25°47' W 080°11'0 0.0
2018-Feb-15 13:59N 25°47' W 080°11'0 0.0
2018-Feb-15 13:29N 25°47' W 080°11'0 0.0
2018-Feb-15 12:56N 25°47' W 080°11'0 0.0
2018-Feb-15 12:23N 25°47' W 080°11'0 0.0
2018-Feb-15 11:56N 25°47' W 080°11'0 0.0
2018-Feb-15 11:26N 25°47' W 080°11'0 0.0
2018-Feb-15 10:50N 25°47' W 080°11'0 0.0
2018-Feb-15 10:26N 25°47' W 080°11'0 0.0
2018-Feb-15 09:50N 25°47' W 080°11'0 0.0
2018-Feb-15 09:20N 25°47' W 080°11'0 0.0
2018-Feb-15 08:56N 25°47' W 080°11'0 0.0
2018-Feb-15 08:29N 25°47' W 080°11'0 0.0
2018-Feb-15 07:56N 25°47' W 080°11'0 0.0
2018-Feb-15 07:29N 25°47' W 080°11'0 0.0
2018-Feb-15 06:50N 25°47' W 080°11'0 0.0
2018-Feb-15 06:20N 25°47' W 080°11'0 0.0
2018-Feb-15 05:59N 25°47' W 080°11'0 0.0
2018-Feb-15 05:23N 25°47' W 080°11'0 0.0
2018-Feb-15 05:00N 25°47' W 080°11'0 0.0
2018-Feb-15 04:29N 25°47' W 080°11'0 0.0
2018-Feb-15 03:59N 25°47' W 080°11'0 0.0
2018-Feb-15 03:29N 25°47' W 080°11'0 0.0
2018-Feb-15 02:59N 25°47' W 080°11'0 0.0
2018-Feb-15 02:23N 25°47' W 080°11'0 0.0
2018-Feb-15 01:56N 25°47' W 080°11'0 0.0
2018-Feb-15 01:29N 25°47' W 080°11'0 0.0
2018-Feb-15 00:59N 25°47' W 080°11'0 0.0
2018-Feb-15 00:29N 25°47' W 080°11'0 0.0
2018-Feb-14 23:53N 25°47' W 080°11'0 0.0
2018-Feb-14 23:29N 25°47' W 080°11'0 0.0
2018-Feb-14 22:56N 25°47' W 080°11'0 0.0
2018-Feb-14 22:29N 25°47' W 080°11'0 0.0
2018-Feb-14 21:56N 25°47' W 080°11'0 0.0
2018-Feb-14 21:29N 25°47' W 080°11'0 0.0
2018-Feb-14 20:59N 25°47' W 080°11'0 0.0
2018-Feb-14 20:29N 25°47' W 080°11'0 0.0
2018-Feb-14 19:59N 25°47' W 080°11'0 0.0
2018-Feb-14 19:29N 25°47' W 080°11'0 0.0
2018-Feb-14 18:59N 25°47' W 080°11'0 0.0
2018-Feb-14 18:29N 25°47' W 080°11'0 0.0
2018-Feb-14 17:35N 25°47' W 080°11'0 0.0
2018-Feb-14 17:23N 25°47' W 080°11'0 0.0
2018-Feb-14 16:53N 25°47' W 080°11'0 0.0
2018-Feb-14 16:26N 25°47' W 080°11'0 0.0
2018-Feb-14 15:56N 25°47' W 080°11'0 0.0
2018-Feb-14 15:26N 25°47' W 080°11'0 0.0
2018-Feb-14 14:59N 25°47' W 080°11'0 0.0
2018-Feb-14 14:26N 25°47' W 080°11'0 0.0
2018-Feb-14 13:53N 25°47' W 080°11'0 0.0
2018-Feb-14 13:29N 25°47' W 080°11'0 0.0
2018-Feb-14 12:53N 25°47' W 080°11'0 0.0
2018-Feb-14 12:23N 25°47' W 080°11'0 0.0
2018-Feb-14 11:59N 25°47' W 080°11'0 0.0
2018-Feb-14 11:29N 25°47' W 080°11'0 0.0
2018-Feb-14 10:59N 25°47' W 080°11'0 0.0
2018-Feb-14 10:29N 25°47' W 080°11'0 0.0
2018-Feb-14 09:47N 25°47' W 080°11'0 0.0
2018-Feb-14 09:29N 25°47' W 080°11'0 0.0
2018-Feb-14 08:56N 25°47' W 080°11'0 0.0
2018-Feb-14 08:29N 25°47' W 080°11'0 0.0
2018-Feb-14 07:59N 25°47' W 080°11'0 0.0
2018-Feb-14 07:29N 25°47' W 080°11'0 0.0
2018-Feb-14 06:59N 25°47' W 080°11'0 0.0
2018-Feb-14 06:29N 25°47' W 080°11'0 0.0
2018-Feb-14 05:59N 25°47' W 080°11'0 0.0
2018-Feb-14 05:29N 25°47' W 080°11'0 0.0
2018-Feb-14 04:59N 25°47' W 080°11'0 0.0
2018-Feb-14 04:29N 25°47' W 080°11'0 0.0
2018-Feb-14 03:59N 25°47' W 080°11'0 0.0
2018-Feb-14 03:29N 25°47' W 080°11'0 0.0
2018-Feb-14 02:59N 25°47' W 080°11'0 0.0
2018-Feb-14 02:29N 25°47' W 080°11'0 0.0
2018-Feb-14 01:59N 25°47' W 080°11'0 0.0
2018-Feb-14 01:29N 25°47' W 080°11'0 0.0
2018-Feb-14 00:59N 25°47' W 080°11'0 0.0
2018-Feb-14 00:29N 25°47' W 080°11'0 0.0
2018-Feb-13 23:53N 25°47' W 080°11'0 0.0
2018-Feb-13 23:29N 25°47' W 080°11'0 0.0
2018-Feb-13 22:59N 25°47' W 080°11'  

Dump ship's entire track history